createdAt,value
2018-11-03T00:01:49.668Z,24.67
2018-11-03T00:04:18.438Z,26.90
2018-11-03T00:06:47.089Z,29.00
2018-11-03T00:09:15.827Z,22.10
2018-11-03T00:11:44.583Z,24.67
2018-11-03T00:14:13.104Z,24.53
2018-11-03T00:16:41.671Z,28.73
2018-11-03T00:19:10.471Z,24.97
2018-11-03T00:21:39.596Z,24.30
2018-11-03T00:24:08.442Z,23.83
2018-11-03T00:26:36.970Z,30.35
2018-11-03T00:29:05.672Z,26.03
2018-11-03T00:31:34.226Z,25.30
2018-11-03T00:34:03.072Z,28.60
2018-11-03T00:36:33.533Z,22.27
2018-11-03T00:39:02.283Z,24.93
2018-11-03T00:41:31.582Z,24.60
2018-11-03T00:44:00.278Z,27.33
2018-11-03T00:46:29.083Z,26.63
2018-11-03T00:48:57.872Z,24.53
2018-11-03T00:51:26.401Z,27.60
2018-11-03T00:53:55.250Z,26.97
2018-11-03T00:56:23.839Z,26.97
2018-11-03T00:58:52.498Z,27.77
2018-11-03T01:01:21.276Z,25.00
2018-11-03T01:03:49.962Z,25.90
2018-11-03T01:06:18.513Z,24.23
2018-11-03T01:08:47.071Z,26.93
2018-11-03T01:11:15.866Z,33.00
2018-11-03T01:13:44.739Z,28.87
2018-11-03T01:16:13.398Z,27.93
2018-11-03T01:18:42.244Z,27.30
2018-11-03T01:21:17.408Z,29.90
2018-11-03T01:23:46.209Z,26.67
2018-11-03T01:26:14.815Z,26.30
2018-11-03T01:28:43.495Z,24.20
2018-11-03T01:31:12.078Z,24.87
2018-11-03T01:33:40.627Z,28.40
2018-11-03T01:36:09.153Z,29.07
2018-11-03T01:38:38.261Z,29.40
2018-11-03T01:41:07.144Z,28.77
2018-11-03T01:43:35.907Z,29.17
2018-11-03T01:46:04.735Z,26.67
2018-11-03T01:48:33.382Z,30.93
2018-11-03T01:51:02.199Z,29.27
2018-11-03T01:53:31.065Z,31.30
2018-11-03T01:55:59.868Z,27.70
2018-11-03T01:58:28.641Z,27.70
2018-11-03T02:00:57.259Z,28.90
2018-11-03T02:03:26.013Z,30.57
2018-11-03T02:05:54.624Z,28.90
2018-11-03T02:08:23.466Z,30.70
2018-11-03T02:10:52.171Z,30.07
2018-11-03T02:13:20.716Z,32.03
2018-11-03T02:15:49.287Z,28.67
2018-11-03T02:18:18.195Z,29.90
2018-11-03T02:20:46.740Z,28.63
2018-11-03T02:23:15.357Z,30.50
2018-11-03T02:25:43.982Z,30.53
2018-11-03T02:28:12.678Z,30.27
2018-11-03T02:30:41.566Z,30.63
2018-11-03T02:33:10.227Z,29.70
2018-11-03T02:35:38.754Z,32.77
2018-11-03T02:38:07.329Z,30.40
2018-11-03T02:40:36.114Z,30.47
2018-11-03T02:43:05.038Z,30.60
2018-11-03T02:49:37.793Z,31.27
2018-11-03T02:52:06.383Z,32.40
2018-11-03T02:54:35.076Z,35.77
2018-11-03T02:57:03.628Z,31.17
2018-11-03T02:59:32.319Z,32.87
2018-11-03T03:02:00.939Z,28.43
2018-11-03T03:04:29.620Z,30.50
2018-11-03T03:06:58.027Z,29.73
2018-11-03T03:09:26.659Z,36.43
2018-11-03T03:11:55.136Z,33.63
2018-11-03T03:14:23.846Z,30.23
2018-11-03T03:16:52.637Z,29.67
2018-11-03T03:19:21.063Z,31.43
2018-11-03T03:21:49.518Z,30.60
2018-11-03T03:24:18.197Z,31.93
2018-11-03T03:26:46.740Z,31.60
2018-11-03T03:29:15.321Z,29.83
2018-11-03T03:31:43.858Z,31.67
2018-11-03T03:34:12.353Z,30.60
2018-11-03T03:36:40.833Z,31.00
2018-11-03T03:39:10.716Z,28.10
2018-11-03T03:41:39.648Z,31.67
2018-11-03T03:44:09.017Z,32.33
2018-11-03T03:46:37.651Z,31.30
2018-11-03T03:49:06.358Z,33.40
2018-11-03T03:51:34.853Z,32.70
2018-11-03T03:54:03.332Z,30.20
2018-11-03T03:56:31.869Z,30.27
2018-11-03T03:59:00.632Z,31.10
2018-11-03T04:01:29.205Z,31.50
2018-11-03T04:03:57.899Z,32.53
2018-11-03T04:06:26.482Z,31.73
2018-11-03T04:08:54.922Z,31.40
2018-11-03T04:11:23.660Z,32.33
2018-11-03T04:13:52.165Z,32.37
2018-11-03T04:16:20.886Z,29.20
2018-11-03T04:18:49.330Z,36.93
2018-11-03T04:21:33.642Z,33.87
2018-11-03T04:24:02.120Z,28.70
2018-11-03T04:26:31.253Z,32.80
2018-11-03T04:29:00.139Z,30.13
2018-11-03T04:31:28.881Z,32.63
2018-11-03T04:33:57.690Z,32.97
2018-11-03T04:36:26.596Z,33.20
2018-11-03T04:38:55.329Z,30.03
2018-11-03T04:41:24.170Z,31.10
2018-11-03T04:43:52.920Z,32.17
2018-11-03T04:46:21.498Z,29.77
2018-11-03T04:48:54.769Z,31.60
2018-11-03T04:51:23.542Z,34.03
2018-11-03T04:53:52.055Z,34.33
2018-11-03T04:56:20.465Z,31.57
2018-11-03T04:58:49.217Z,35.58
2018-11-03T05:01:17.929Z,30.50
2018-11-03T05:03:46.731Z,32.77
2018-11-03T05:06:15.292Z,31.03
2018-11-03T05:08:44.186Z,33.80
2018-11-03T05:11:12.978Z,31.00
2018-11-03T05:13:41.566Z,32.15
2018-11-03T05:16:10.374Z,30.70
2018-11-03T05:18:39.288Z,31.57
2018-11-03T05:21:08.466Z,34.63
2018-11-03T05:23:37.068Z,36.77
2018-11-03T05:26:06.099Z,35.63
2018-11-03T05:28:35.169Z,39.87
2018-11-03T05:31:03.868Z,37.50
2018-11-03T05:33:32.482Z,34.47
2018-11-03T05:36:00.960Z,37.33
2018-11-03T05:38:29.613Z,32.13
2018-11-03T05:40:58.651Z,36.20
2018-11-03T05:43:27.315Z,35.30
2018-11-03T05:45:56.200Z,36.43
2018-11-03T05:48:25.025Z,28.90
2018-11-03T05:50:54.028Z,32.00
2018-11-03T05:53:22.563Z,30.00
2018-11-03T05:55:51.475Z,31.37
2018-11-03T05:58:20.332Z,30.40
2018-11-03T06:00:48.943Z,30.13
2018-11-03T06:03:17.762Z,32.83
2018-11-03T06:05:46.713Z,30.57
2018-11-03T06:08:15.308Z,31.53
2018-11-03T06:10:44.319Z,29.97
2018-11-03T06:13:13.701Z,27.15
2018-11-03T06:15:42.601Z,31.00
2018-11-03T06:18:11.541Z,29.93
2018-11-03T06:20:41.337Z,41.93
2018-11-03T06:23:10.451Z,26.13
2018-11-03T06:25:39.039Z,29.37
2018-11-03T06:28:08.045Z,30.50
2018-11-03T06:30:36.532Z,29.47
2018-11-03T06:33:05.518Z,29.80
2018-11-03T06:35:34.694Z,27.97
2018-11-03T06:38:03.580Z,31.83
2018-11-03T06:40:32.756Z,31.80
2018-11-03T06:43:01.404Z,32.50
2018-11-03T06:45:30.411Z,30.40
2018-11-03T06:47:59.397Z,33.83
2018-11-03T06:50:28.421Z,32.70
2018-11-03T06:52:57.405Z,30.10
2018-11-03T06:55:26.138Z,31.30
2018-11-03T06:57:55.251Z,28.93
2018-11-03T07:00:23.953Z,32.13
2018-11-03T07:02:52.804Z,34.27
2018-11-03T07:05:22.027Z,28.63
2018-11-03T07:07:51.294Z,29.30
2018-11-03T07:10:20.679Z,28.80
2018-11-03T07:12:50.084Z,28.13
2018-11-03T07:15:19.016Z,30.03
2018-11-03T07:17:48.419Z,32.10
2018-11-03T07:20:17.622Z,36.33
2018-11-03T07:22:46.684Z,42.43
2018-11-03T07:25:16.932Z,40.77
2018-11-03T07:27:45.706Z,40.20
2018-11-03T07:30:15.036Z,33.30
2018-11-03T07:32:44.777Z,27.83
2018-11-03T07:35:14.634Z,29.02
2018-11-03T07:37:44.786Z,33.50
2018-11-03T07:40:14.563Z,34.27
2018-11-03T07:42:43.723Z,27.13
2018-11-03T07:45:12.959Z,28.17
2018-11-03T07:47:41.917Z,31.25
2018-11-03T07:50:12.574Z,30.05
2018-11-03T07:52:43.001Z,30.47
2018-11-03T07:55:13.348Z,27.77
2018-11-03T07:57:42.900Z,30.23
2018-11-03T08:00:15.027Z,29.20
2018-11-03T08:02:44.168Z,29.87
2018-11-03T08:05:14.194Z,27.90
2018-11-03T08:07:49.419Z,23.77
2018-11-03T08:10:19.042Z,32.13
2018-11-03T08:12:48.550Z,26.13
2018-11-03T08:15:21.662Z,26.80
2018-11-03T08:17:50.873Z,23.80
2018-11-03T08:20:21.508Z,29.48
2018-11-03T08:23:00.702Z,27.15
2018-11-03T08:25:31.476Z,28.03
2018-11-03T08:28:02.914Z,23.53
2018-11-03T08:33:26.740Z,26.57
2018-11-03T08:36:01.184Z,27.63
2018-11-03T08:38:30.950Z,27.93
2018-11-03T08:41:01.018Z,27.20
2018-11-03T08:43:34.617Z,24.80
2018-11-03T08:46:11.313Z,22.90
2018-11-03T08:48:41.525Z,29.10
2018-11-03T08:51:10.405Z,24.63
2018-11-03T08:53:40.034Z,25.43
2018-11-03T08:56:11.002Z,29.30
2018-11-03T08:58:40.264Z,33.18
2018-11-03T09:01:09.522Z,26.07
2018-11-03T09:04:44.810Z,28.57
2018-11-03T09:07:14.476Z,24.27
2018-11-03T09:09:48.125Z,34.50
2018-11-03T09:12:19.263Z,27.20
2018-11-03T09:14:51.566Z,27.03
2018-11-03T09:17:20.821Z,28.10
2018-11-03T09:19:49.686Z,25.23
2018-11-03T09:22:18.589Z,28.13
2018-11-03T09:24:47.543Z,25.53
2018-11-03T09:27:18.369Z,30.60
2018-11-03T09:29:47.582Z,29.23
2018-11-03T09:32:20.056Z,28.43
2018-11-03T09:34:50.430Z,25.00
2018-11-03T09:37:21.131Z,26.83
2018-11-03T09:39:50.820Z,24.10
2018-11-03T09:42:20.377Z,22.00
2018-11-03T09:44:50.779Z,26.70
2018-11-03T09:47:20.455Z,25.00
2018-11-03T09:49:49.747Z,26.40
2018-11-03T09:52:18.972Z,22.53
2018-11-03T09:54:47.862Z,28.10
2018-11-03T09:57:17.214Z,23.40
2018-11-03T09:59:46.352Z,24.83
2018-11-03T10:02:16.541Z,26.20
2018-11-03T10:04:45.968Z,23.27
2018-11-03T10:07:15.031Z,28.40
2018-11-03T10:09:44.859Z,25.80
2018-11-03T10:12:14.192Z,27.43
2018-11-03T10:14:46.447Z,23.13
2018-11-03T10:17:19.902Z,23.20
2018-11-03T10:19:49.221Z,25.27
2018-11-03T10:22:20.999Z,27.07
2018-11-03T10:24:51.021Z,24.73
2018-11-03T10:27:23.835Z,24.07
2018-11-03T10:29:53.005Z,24.20
2018-11-03T10:32:27.403Z,24.90
2018-11-03T10:34:57.143Z,24.60
2018-11-03T10:37:32.376Z,23.83
2018-11-03T10:40:04.287Z,27.50
2018-11-03T10:42:34.678Z,23.90
2018-11-03T10:45:04.054Z,23.47
2018-11-03T10:47:33.181Z,25.07
2018-11-03T10:50:02.474Z,26.03
2018-11-03T10:52:32.255Z,23.63
2018-11-03T10:55:01.644Z,26.40
2018-11-03T10:57:33.118Z,25.70
2018-11-03T11:00:23.186Z,26.10
2018-11-03T11:03:06.952Z,24.87
2018-11-03T11:05:41.650Z,28.70
2018-11-03T11:08:16.099Z,23.60
2018-11-03T11:10:50.278Z,26.40
2018-11-03T11:13:22.760Z,25.93
2018-11-03T11:15:57.093Z,24.43
2018-11-03T11:18:29.337Z,23.37
2018-11-03T11:21:03.404Z,26.57
2018-11-03T11:23:32.891Z,26.20
2018-11-03T11:26:07.372Z,21.97
2018-11-03T11:28:39.359Z,22.13
2018-11-03T11:31:11.133Z,24.93
2018-11-03T11:33:41.707Z,22.60
2018-11-03T11:36:17.391Z,24.00
2018-11-03T11:41:40.420Z,23.97
2018-11-03T12:01:07.854Z,24.10
2018-11-03T12:03:39.492Z,28.07
2018-11-03T12:06:09.976Z,25.07
2018-11-03T12:08:39.873Z,22.50
2018-11-03T12:11:09.528Z,23.90
2018-11-03T12:13:40.605Z,23.20
2018-11-03T12:16:20.683Z,25.37
2018-11-03T12:18:50.000Z,27.20
2018-11-03T12:21:20.971Z,25.23
2018-11-03T12:23:50.012Z,26.55
2018-11-03T12:26:19.246Z,28.47
2018-11-03T12:28:49.102Z,24.43
2018-11-03T12:31:18.401Z,27.40
2018-11-03T12:33:48.265Z,28.57
2018-11-03T12:36:17.753Z,26.00
2018-11-03T12:38:47.141Z,24.50
2018-11-03T12:41:17.001Z,23.33
2018-11-03T12:43:49.704Z,21.80
2018-11-03T12:46:19.404Z,25.70
2018-11-03T12:48:49.344Z,28.37
2018-11-03T12:51:22.893Z,24.87
2018-11-03T12:53:52.661Z,23.33
2018-11-03T12:56:22.194Z,26.10
2018-11-03T13:31:34.601Z,25.73
2018-11-03T13:34:04.957Z,28.10
2018-11-03T13:36:34.863Z,26.40
2018-11-03T13:39:04.001Z,27.90
2018-11-03T13:41:36.246Z,24.53
2018-11-03T13:44:06.285Z,26.60
2018-11-03T13:46:35.954Z,29.30
2018-11-03T13:49:05.362Z,25.27
2018-11-03T13:51:34.578Z,25.47
2018-11-03T13:54:03.870Z,26.47
2018-11-03T13:56:34.090Z,25.23
2018-11-03T13:59:03.654Z,35.43
2018-11-03T14:01:40.764Z,26.13
2018-11-03T14:04:14.049Z,26.83
2018-11-03T14:06:44.719Z,24.20
2018-11-03T14:09:14.595Z,24.13
2018-11-03T14:11:47.253Z,25.53
2018-11-03T14:14:28.741Z,27.50
2018-11-03T14:16:59.874Z,25.33
2018-11-03T14:19:33.210Z,24.23
2018-11-03T14:22:02.988Z,25.33
2018-11-03T14:24:34.580Z,28.20
2018-11-03T14:27:03.623Z,26.70
2018-11-03T14:29:33.662Z,22.87
2018-11-03T14:32:07.674Z,25.10
2018-11-03T14:34:37.171Z,25.53
2018-11-03T14:37:07.189Z,24.77
2018-11-03T14:39:37.207Z,24.23
2018-11-03T14:42:08.798Z,24.00
2018-11-03T14:44:38.945Z,23.37
2018-11-03T14:47:09.439Z,23.95
2018-11-03T14:49:39.820Z,22.27
2018-11-03T14:52:09.710Z,22.57
2018-11-03T14:54:39.362Z,24.40
2018-11-03T14:57:08.945Z,23.92
2018-11-03T14:59:38.472Z,24.57
2018-11-03T15:02:13.188Z,24.30
2018-11-03T15:04:43.420Z,29.00
2018-11-03T15:07:12.747Z,22.40
2018-11-03T15:28:36.349Z,25.83
2018-11-03T15:31:10.200Z,25.27
2018-11-03T15:33:57.066Z,26.50
2018-11-03T15:36:36.768Z,23.63
2018-11-03T15:39:07.196Z,27.87
2018-11-03T15:41:42.417Z,26.80
2018-11-03T15:47:45.758Z,26.40
2018-11-03T15:50:15.785Z,28.47
2018-11-03T15:52:47.050Z,24.57
2018-11-03T15:55:15.981Z,25.10
2018-11-03T15:58:08.263Z,30.93
2018-11-03T16:00:50.536Z,38.20
2018-11-03T16:03:23.645Z,27.60
2018-11-03T16:06:05.768Z,29.47
2018-11-03T16:08:34.432Z,27.97
2018-11-03T16:11:03.941Z,33.33
2018-11-03T16:13:33.859Z,23.47
2018-11-03T16:16:03.120Z,25.10
2018-11-03T16:18:32.323Z,28.93
2018-11-03T16:21:01.385Z,26.67
2018-11-03T16:23:30.323Z,26.93
2018-11-03T16:25:59.470Z,28.57
2018-11-03T16:28:28.167Z,27.33
2018-11-03T16:30:57.141Z,28.47
2018-11-03T16:33:26.020Z,27.13
2018-11-03T16:35:55.009Z,32.45
2018-11-03T16:38:24.193Z,24.23
2018-11-03T16:40:53.295Z,29.80
2018-11-03T16:43:22.389Z,24.83
2018-11-03T16:45:51.124Z,27.77
2018-11-03T16:48:20.124Z,27.60
2018-11-03T16:50:48.995Z,27.63
2018-11-03T16:53:18.782Z,32.13
2018-11-03T16:55:47.754Z,28.17
2018-11-03T16:58:16.776Z,28.33
2018-11-03T17:00:45.695Z,34.13
2018-11-03T17:03:14.897Z,34.93
2018-11-03T17:05:43.823Z,31.23
2018-11-03T17:08:13.247Z,28.60
2018-11-03T17:10:44.911Z,32.43
2018-11-03T17:13:15.625Z,31.73
2018-11-03T17:15:44.809Z,31.03
2018-11-03T17:18:13.884Z,36.20
2018-11-03T17:20:42.646Z,26.57
2018-11-03T17:23:11.810Z,26.47
2018-11-03T17:25:40.705Z,27.97
2018-11-03T17:33:52.301Z,28.57
2018-11-03T17:36:21.643Z,27.15
2018-11-03T17:38:50.342Z,27.30
2018-11-03T17:41:19.529Z,29.33
2018-11-03T17:43:48.397Z,34.83
2018-11-03T17:46:17.150Z,32.70
2018-11-03T17:48:45.954Z,28.90
2018-11-03T17:51:15.082Z,28.77
2018-11-03T17:53:43.826Z,31.80
2018-11-03T17:56:12.720Z,31.37
2018-11-03T17:58:41.488Z,31.70
2018-11-03T18:01:10.523Z,32.73
2018-11-03T18:03:39.375Z,33.33
2018-11-03T18:06:08.561Z,42.63
2018-11-03T18:08:38.075Z,32.73
2018-11-03T18:11:08.317Z,30.50
2018-11-03T18:13:37.654Z,29.30
2018-11-03T18:16:07.842Z,31.43
2018-11-03T18:18:37.375Z,30.33
2018-11-03T18:21:06.164Z,29.47
2018-11-03T18:23:34.984Z,28.53
2018-11-03T18:26:05.138Z,29.67
2018-11-03T18:28:36.257Z,29.77
2018-11-03T18:31:25.921Z,29.70
2018-11-03T18:34:12.584Z,29.00
2018-11-03T18:37:28.661Z,27.90
2018-11-03T18:39:57.471Z,29.53
2018-11-03T18:42:26.321Z,32.30
2018-11-03T18:44:55.240Z,30.32
2018-11-03T18:47:24.180Z,29.33
2018-11-03T18:49:53.561Z,29.23
2018-11-03T18:52:22.689Z,30.53
2018-11-03T19:02:40.158Z,27.77
2018-11-03T19:05:09.962Z,28.33
2018-11-03T19:07:38.514Z,27.03
2018-11-03T19:10:08.345Z,27.60
2018-11-03T19:12:37.425Z,41.13
2018-11-03T19:15:07.128Z,33.90
2018-11-03T19:17:35.858Z,35.47
2018-11-03T19:20:04.922Z,32.70
2018-11-03T19:22:33.588Z,31.40
2018-11-03T19:25:02.307Z,27.03
2018-11-03T19:27:30.965Z,28.97
2018-11-03T19:29:59.849Z,30.50
2018-11-03T19:32:28.465Z,30.50
2018-11-03T19:34:59.612Z,29.20
2018-11-03T19:37:28.277Z,29.05
2018-11-03T19:39:56.875Z,30.40
2018-11-03T19:42:25.674Z,29.97
2018-11-03T19:44:54.417Z,35.73
2018-11-03T19:47:23.910Z,29.70
2018-11-03T19:49:53.099Z,29.63
2018-11-03T19:52:22.210Z,31.87
2018-11-03T19:54:50.858Z,28.87
2018-11-03T19:57:19.509Z,35.63
2018-11-03T19:59:48.222Z,31.17
2018-11-03T20:02:17.091Z,30.53
2018-11-03T20:04:45.775Z,33.47
2018-11-03T20:07:14.788Z,32.47
2018-11-03T20:09:43.477Z,35.50
2018-11-03T20:12:12.385Z,33.90
2018-11-03T20:14:41.270Z,36.20
2018-11-03T20:17:10.287Z,32.03
2018-11-03T20:19:39.463Z,31.20
2018-11-03T20:22:08.816Z,29.50
2018-11-03T20:24:37.462Z,30.43
2018-11-03T20:27:06.045Z,30.60
2018-11-03T20:29:34.927Z,34.87
2018-11-03T20:32:03.759Z,30.53
2018-11-03T20:34:32.423Z,31.47
2018-11-03T20:37:01.227Z,29.27
2018-11-03T20:39:30.044Z,30.90
2018-11-03T20:41:58.932Z,29.00
2018-11-03T20:44:27.764Z,31.00
2018-11-03T20:46:56.504Z,31.30
2018-11-03T20:49:25.243Z,30.53
2018-11-03T20:51:54.656Z,32.08
2018-11-03T20:54:23.823Z,29.10
2018-11-03T20:56:52.611Z,32.00
2018-11-03T20:59:21.299Z,33.90
2018-11-03T21:01:50.077Z,33.53
2018-11-03T21:04:18.951Z,30.83
2018-11-03T21:06:48.455Z,32.70
2018-11-03T21:09:17.400Z,30.47
2018-11-03T21:11:46.451Z,33.27
2018-11-03T21:14:15.465Z,32.03
2018-11-03T21:16:44.349Z,37.20
2018-11-03T21:19:13.633Z,32.40
2018-11-03T21:21:42.124Z,32.60
2018-11-03T21:24:11.281Z,31.33
2018-11-03T21:26:39.825Z,32.10
2018-11-03T21:29:09.044Z,29.90
2018-11-03T21:31:37.880Z,31.60
2018-11-03T21:34:06.938Z,32.53
2018-11-03T21:36:35.476Z,32.53
2018-11-03T21:39:05.987Z,30.13
2018-11-03T21:41:35.075Z,29.33
2018-11-03T21:44:03.760Z,30.57
2018-11-03T21:46:32.688Z,31.10
2018-11-03T21:49:01.364Z,32.50
2018-11-03T21:51:30.013Z,27.70
2018-11-03T21:53:58.666Z,29.80
2018-11-03T21:56:27.528Z,29.52
2018-11-03T21:58:56.561Z,31.20
2018-11-03T22:01:25.617Z,25.07
2018-11-03T22:03:54.201Z,29.50
2018-11-03T22:06:23.020Z,33.33
2018-11-03T22:08:51.814Z,31.80
2018-11-03T22:11:21.894Z,34.47
2018-11-03T22:13:51.109Z,32.73
2018-11-03T22:16:19.946Z,31.27
2018-11-03T22:18:48.773Z,31.03
2018-11-03T22:21:17.649Z,30.60
2018-11-03T22:23:46.502Z,30.23
2018-11-03T22:26:15.362Z,29.50
2018-11-03T22:28:44.214Z,31.20
2018-11-03T22:31:12.993Z,30.10
2018-11-03T22:33:42.022Z,28.50
2018-11-03T22:36:10.625Z,31.90
2018-11-03T22:38:39.364Z,27.17
2018-11-03T22:41:08.045Z,28.37
2018-11-03T22:43:37.117Z,31.70
2018-11-03T22:46:06.071Z,30.47
2018-11-03T22:48:34.658Z,28.73
2018-11-03T22:51:03.245Z,30.00
2018-11-03T22:53:31.868Z,33.27
2018-11-03T22:56:00.811Z,30.10
2018-11-03T22:58:33.505Z,28.57
2018-11-03T23:01:02.730Z,30.32
2018-11-03T23:03:31.323Z,37.90
2018-11-03T23:06:00.258Z,30.77
2018-11-03T23:08:28.896Z,29.27
2018-11-03T23:26:22.304Z,30.23
2018-11-03T23:28:51.003Z,29.93
2018-11-03T23:31:19.598Z,34.80
2018-11-03T23:33:48.009Z,29.27
2018-11-03T23:36:16.714Z,28.87
2018-11-03T23:38:45.396Z,28.33
2018-11-03T23:41:13.915Z,23.80
2018-11-03T23:43:42.386Z,25.13
2018-11-03T23:46:10.884Z,26.73
2018-11-03T23:48:39.826Z,27.80
2018-11-03T23:51:09.897Z,28.70
2018-11-03T23:53:38.721Z,27.10
2018-11-03T23:56:07.164Z,30.03
2018-11-03T23:58:35.707Z,31.50
